createdAt,value
2023-01-15T00:02:41.335Z,0.60
2023-01-15T00:05:42.807Z,0.60
2023-01-15T00:08:44.867Z,0.70
2023-01-15T00:11:46.257Z,0.50
2023-01-15T00:14:47.679Z,0.53
2023-01-15T00:17:49.217Z,0.50
2023-01-15T00:20:58.919Z,0.70
2023-01-15T00:24:18.966Z,0.57
2023-01-15T00:27:38.850Z,0.50
2023-01-15T00:30:42.336Z,0.50
2023-01-15T00:33:43.742Z,0.67
2023-01-15T00:36:45.150Z,0.73
2023-01-15T00:39:46.900Z,0.60
2023-01-15T00:42:54.018Z,0.60
2023-01-15T00:45:55.928Z,0.60
2023-01-15T00:48:57.332Z,0.77
2023-01-15T00:51:58.735Z,0.63
2023-01-15T00:55:00.297Z,0.40
2023-01-15T00:58:04.323Z,0.50
2023-01-15T01:01:06.065Z,0.73
2023-01-15T01:04:08.770Z,0.60
2023-01-15T01:07:10.642Z,0.60
2023-01-15T01:10:12.031Z,0.57
2023-01-15T01:13:13.423Z,0.50
2023-01-15T01:16:24.508Z,1.00
2023-01-15T01:19:26.369Z,0.60
2023-01-15T01:22:27.831Z,0.60
2023-01-15T01:25:29.276Z,0.70
2023-01-15T01:28:30.747Z,0.60
2023-01-15T01:31:32.312Z,0.53
2023-01-15T01:34:34.399Z,0.90
2023-01-15T01:37:35.805Z,0.40
2023-01-15T01:40:41.334Z,0.70
2023-01-15T01:44:06.673Z,0.50
2023-01-15T01:47:11.619Z,0.50
2023-01-15T01:50:14.361Z,0.80
2023-01-15T01:53:22.831Z,0.50
2023-01-15T01:56:24.681Z,0.47
2023-01-15T01:59:26.837Z,0.50
2023-01-15T02:02:28.607Z,0.60
2023-01-15T02:05:33.391Z,0.50
2023-01-15T02:08:35.045Z,0.40
2023-01-15T02:11:36.611Z,0.40
2023-01-15T02:14:53.867Z,0.50
2023-01-15T02:18:05.927Z,0.50
2023-01-15T02:21:38.601Z,0.60
2023-01-15T02:25:06.250Z,0.50
2023-01-15T02:28:20.054Z,0.50
2023-01-15T02:31:28.236Z,0.60
2023-01-15T02:34:35.175Z,0.50
2023-01-15T02:37:49.546Z,0.40
2023-01-15T02:40:56.894Z,0.40
2023-01-15T02:44:01.516Z,0.60
2023-01-15T02:47:05.032Z,0.50
2023-01-15T02:50:12.756Z,0.50
2023-01-15T02:53:23.610Z,0.50
2023-01-15T02:56:29.823Z,0.50
2023-01-15T02:59:38.381Z,0.40
2023-01-15T03:02:50.301Z,0.50
2023-01-15T03:06:04.152Z,0.70
2023-01-15T03:09:07.466Z,0.50
2023-01-15T03:12:17.233Z,0.50
2023-01-15T03:15:43.189Z,0.53
2023-01-15T03:18:56.355Z,0.60
2023-01-15T03:22:04.763Z,0.53
2023-01-15T03:25:13.766Z,0.70
2023-01-15T03:28:28.432Z,0.70
2023-01-15T03:31:30.103Z,0.40
2023-01-15T03:34:56.264Z,0.63
2023-01-15T03:37:58.730Z,0.60
2023-01-15T03:41:23.380Z,0.50
2023-01-15T03:44:41.038Z,0.50
2023-01-15T03:47:43.384Z,0.30
2023-01-15T03:50:56.248Z,0.20
2023-01-15T03:54:05.780Z,0.30
2023-01-15T03:57:21.665Z,0.20
2023-01-15T04:00:30.728Z,0.50
2023-01-15T04:03:35.986Z,0.30
2023-01-15T04:06:41.764Z,0.20
2023-01-15T04:09:43.242Z,0.20
2023-01-15T04:12:47.686Z,0.30
2023-01-15T04:15:49.800Z,0.30
2023-01-15T04:18:53.631Z,0.30
2023-01-15T04:21:55.126Z,0.20
2023-01-15T04:24:56.866Z,0.20
2023-01-15T04:27:58.270Z,0.20
2023-01-15T04:31:02.725Z,0.27
2023-01-15T04:34:04.334Z,0.40
2023-01-15T04:37:05.960Z,0.20
2023-01-15T04:40:08.269Z,0.20
2023-01-15T04:43:32.682Z,0.30
2023-01-15T04:46:36.788Z,0.30
2023-01-15T04:49:38.211Z,0.30
2023-01-15T04:52:39.692Z,0.30
2023-01-15T04:55:41.075Z,0.30
2023-01-15T04:58:42.473Z,0.30
2023-01-15T05:01:58.049Z,0.30
2023-01-15T05:05:04.749Z,0.30
2023-01-15T05:08:06.207Z,0.30
2023-01-15T05:11:07.718Z,0.30
2023-01-15T05:14:09.299Z,0.30
2023-01-15T05:17:10.731Z,0.30
2023-01-15T05:20:12.473Z,0.20
2023-01-15T05:23:13.923Z,0.20
2023-01-15T05:26:15.781Z,0.27
2023-01-15T05:29:17.219Z,0.40
2023-01-15T05:32:18.637Z,0.30
2023-01-15T05:35:20.148Z,0.30
2023-01-15T05:38:21.591Z,0.30
2023-01-15T05:41:41.967Z,0.27
2023-01-15T05:44:43.341Z,0.30
2023-01-15T05:47:44.733Z,0.30
2023-01-15T05:50:46.148Z,0.27
2023-01-15T05:53:47.535Z,0.20
2023-01-15T05:56:49.335Z,0.30
2023-01-15T05:59:50.735Z,0.20
2023-01-15T06:02:52.341Z,0.30
2023-01-15T06:05:55.462Z,0.30
2023-01-15T06:08:57.057Z,0.20
2023-01-15T06:11:58.598Z,0.20
2023-01-15T06:15:00.221Z,0.30
2023-01-15T06:18:01.686Z,0.40
2023-01-15T06:21:05.682Z,0.30
2023-01-15T06:24:08.058Z,0.30
2023-01-15T06:27:09.904Z,0.30
2023-01-15T06:30:12.233Z,0.30
2023-01-15T06:33:13.618Z,0.30
2023-01-15T06:36:17.369Z,0.30
2023-01-15T06:39:18.777Z,0.30
2023-01-15T06:42:38.818Z,0.43
2023-01-15T06:45:59.701Z,0.30
2023-01-15T06:49:01.077Z,0.40
2023-01-15T06:52:04.385Z,0.20
2023-01-15T06:55:06.174Z,0.30
2023-01-15T06:58:07.933Z,0.30
2023-01-15T07:01:15.283Z,0.23
2023-01-15T07:04:16.922Z,0.30
2023-01-15T07:07:19.988Z,0.47
2023-01-15T07:10:21.374Z,0.30
2023-01-15T07:13:22.923Z,0.30
2023-01-15T07:16:30.346Z,0.40
2023-01-15T07:19:31.746Z,0.40
2023-01-15T07:22:33.139Z,0.30
2023-01-15T07:25:34.551Z,0.40
2023-01-15T07:28:35.936Z,0.53
2023-01-15T07:31:38.012Z,0.30
2023-01-15T07:34:39.448Z,0.40
2023-01-15T07:37:40.987Z,0.40
2023-01-15T07:40:42.379Z,0.50
2023-01-15T07:44:02.570Z,0.50
2023-01-15T07:47:34.872Z,0.40
2023-01-15T07:50:36.692Z,0.30
2023-01-15T07:53:38.077Z,0.30
2023-01-15T07:56:39.535Z,0.33
2023-01-15T07:59:40.996Z,0.40
2023-01-15T08:02:42.446Z,0.40
2023-01-15T08:05:43.927Z,0.40
2023-01-15T08:08:45.597Z,0.30
2023-01-15T08:12:05.341Z,0.40
2023-01-15T08:15:15.023Z,0.30
2023-01-15T08:18:16.446Z,0.40
2023-01-15T08:21:17.925Z,0.30
2023-01-15T08:24:19.460Z,0.30
2023-01-15T08:27:20.912Z,0.40
2023-01-15T08:30:25.328Z,0.33
2023-01-15T08:33:26.708Z,0.30
2023-01-15T08:36:28.110Z,0.30
2023-01-15T08:39:29.750Z,0.30
2023-01-15T08:42:31.301Z,0.30
2023-01-15T08:45:32.739Z,0.50
2023-01-15T08:48:34.162Z,0.30
2023-01-15T08:51:35.583Z,0.50
2023-01-15T08:54:36.981Z,0.30
2023-01-15T08:57:38.675Z,0.30
2023-01-15T09:00:40.569Z,0.30
2023-01-15T09:03:43.241Z,0.47
2023-01-15T09:06:44.914Z,0.30
2023-01-15T09:09:46.310Z,0.30
2023-01-15T09:12:47.936Z,0.30
2023-01-15T09:15:49.432Z,0.50
2023-01-15T09:18:50.819Z,0.40
2023-01-15T09:21:52.245Z,0.47
2023-01-15T09:24:53.795Z,0.40
2023-01-15T09:27:56.101Z,0.50
2023-01-15T09:30:57.492Z,0.70
2023-01-15T09:33:59.269Z,0.70
2023-01-15T09:37:00.680Z,0.70
2023-01-15T09:40:04.004Z,0.90
2023-01-15T09:43:15.188Z,0.80
2023-01-15T09:46:26.040Z,0.70
2023-01-15T09:49:40.702Z,0.60
2023-01-15T09:52:50.973Z,0.60
2023-01-15T09:55:54.817Z,0.60
2023-01-15T09:58:59.159Z,0.50
2023-01-15T10:02:04.978Z,0.60
2023-01-15T10:05:18.103Z,0.40
2023-01-15T10:08:43.394Z,0.40
2023-01-15T10:12:14.153Z,0.40
2023-01-15T10:15:24.191Z,0.40
2023-01-15T10:18:28.151Z,0.40
2023-01-15T10:21:56.589Z,0.67
2023-01-15T10:24:58.800Z,0.40
2023-01-15T10:28:10.667Z,0.50
2023-01-15T10:31:26.139Z,0.50
2023-01-15T10:34:54.283Z,0.50
2023-01-15T10:37:55.623Z,0.57
2023-01-15T10:41:25.253Z,0.60
2023-01-15T10:44:51.639Z,0.60
2023-01-15T10:48:08.267Z,0.40
2023-01-15T10:51:21.325Z,0.60
2023-01-15T10:54:44.534Z,0.50
2023-01-15T10:58:01.887Z,0.50
2023-01-15T11:01:15.050Z,0.40
2023-01-15T11:04:16.485Z,0.50
2023-01-15T11:07:18.588Z,0.40
2023-01-15T11:10:23.075Z,0.50
2023-01-15T11:13:44.765Z,0.40
2023-01-15T11:17:04.594Z,0.43
2023-01-15T11:20:36.653Z,0.80
2023-01-15T11:23:38.120Z,0.47
2023-01-15T11:26:39.619Z,0.40
2023-01-15T11:29:44.055Z,0.50
2023-01-15T11:32:55.599Z,0.40
2023-01-15T11:36:00.779Z,0.50
2023-01-15T11:39:02.226Z,0.40
2023-01-15T11:42:24.788Z,0.50
2023-01-15T11:45:45.006Z,0.57
2023-01-15T11:49:06.616Z,0.50
2023-01-15T11:52:11.343Z,0.80
2023-01-15T11:55:15.575Z,1.27
2023-01-15T11:58:17.003Z,0.80
2023-01-15T12:01:29.283Z,0.70
2023-01-15T12:04:45.302Z,0.60
2023-01-15T12:07:49.677Z,0.70
2023-01-15T12:11:25.257Z,0.60
2023-01-15T12:14:50.106Z,0.70
2023-01-15T12:18:29.742Z,0.80
2023-01-15T12:21:57.281Z,0.80
2023-01-15T12:25:07.474Z,0.77
2023-01-15T12:28:25.398Z,0.70
2023-01-15T12:31:37.846Z,0.77
2023-01-15T12:34:54.555Z,1.00
2023-01-15T12:38:04.595Z,0.80
2023-01-15T12:41:14.265Z,0.80
2023-01-15T12:44:40.647Z,0.90
2023-01-15T12:48:02.346Z,0.83
2023-01-15T12:51:06.288Z,0.70
2023-01-15T12:54:14.262Z,0.97
2023-01-15T12:57:24.702Z,2.07
2023-01-15T13:00:44.184Z,0.67
2023-01-15T13:04:10.638Z,0.90
2023-01-15T13:07:21.797Z,0.83
2023-01-15T13:10:26.360Z,1.13
2023-01-15T13:13:35.794Z,1.70
2023-01-15T13:16:46.241Z,1.17
2023-01-15T13:20:05.030Z,0.87
2023-01-15T13:23:43.746Z,1.17
2023-01-15T13:27:03.189Z,0.80
2023-01-15T13:30:35.500Z,0.70
2023-01-15T13:33:42.889Z,0.97
2023-01-15T13:36:47.835Z,0.70
2023-01-15T13:39:52.024Z,1.10
2023-01-15T13:42:54.456Z,1.30
2023-01-15T13:45:57.191Z,1.07
2023-01-15T13:48:58.694Z,0.97
2023-01-15T13:52:04.163Z,0.97
2023-01-15T13:55:19.363Z,1.10
2023-01-15T13:58:29.405Z,0.93
2023-01-15T14:01:30.771Z,0.80
2023-01-15T14:04:37.507Z,1.13
2023-01-15T14:07:38.994Z,0.93
2023-01-15T14:10:40.851Z,0.80
2023-01-15T14:14:08.205Z,0.70
2023-01-15T14:17:09.500Z,0.97
2023-01-15T14:20:30.545Z,0.87
2023-01-15T14:24:01.155Z,0.80
2023-01-15T14:27:23.933Z,0.90
2023-01-15T14:30:37.403Z,1.00
2023-01-15T14:34:05.946Z,0.90
2023-01-15T14:37:24.789Z,1.10
2023-01-15T14:40:31.029Z,0.87
2023-01-15T14:43:35.995Z,0.93
2023-01-15T14:46:41.233Z,0.87
2023-01-15T14:49:49.628Z,0.93
2023-01-15T14:52:53.461Z,0.90
2023-01-15T14:56:19.377Z,0.83
2023-01-15T14:59:25.962Z,0.83
2023-01-15T15:02:36.101Z,1.00
2023-01-15T15:05:37.655Z,0.80
2023-01-15T15:08:42.864Z,0.90
2023-01-15T15:12:06.191Z,1.30
2023-01-15T15:15:25.601Z,0.93
2023-01-15T15:18:35.601Z,1.10
2023-01-15T15:21:45.181Z,1.10
2023-01-15T15:24:51.541Z,0.80
2023-01-15T15:28:08.942Z,0.90
2023-01-15T15:31:11.107Z,1.23
2023-01-15T15:34:20.482Z,1.07
2023-01-15T15:37:27.648Z,1.10
2023-01-15T15:40:34.853Z,1.10
2023-01-15T15:44:10.266Z,1.00
2023-01-15T15:47:41.516Z,0.90
2023-01-15T15:50:43.100Z,0.93
2023-01-15T15:53:44.525Z,1.00
2023-01-15T15:57:01.532Z,0.80
2023-01-15T16:00:04.137Z,1.10
2023-01-15T16:03:15.010Z,1.23
2023-01-15T16:06:21.676Z,0.80
2023-01-15T16:09:24.367Z,0.90
2023-01-15T16:12:31.101Z,1.00
2023-01-15T16:15:42.600Z,0.77
2023-01-15T16:18:50.055Z,1.00
2023-01-15T16:21:52.914Z,0.87
2023-01-15T16:24:56.684Z,1.10
2023-01-15T16:27:59.066Z,1.07
2023-01-15T16:31:05.155Z,1.37
2023-01-15T16:34:07.092Z,1.20
2023-01-15T16:37:30.544Z,1.10
2023-01-15T16:40:37.004Z,3.10
2023-01-15T16:43:58.910Z,1.70
2023-01-15T16:47:01.628Z,1.10
2023-01-15T16:50:22.083Z,1.03
2023-01-15T16:53:35.658Z,0.90
2023-01-15T16:56:41.330Z,1.23
2023-01-15T16:59:45.836Z,1.03
2023-01-15T17:02:47.368Z,0.80
2023-01-15T17:05:54.447Z,1.27
2023-01-15T17:08:57.770Z,1.07
2023-01-15T17:12:06.357Z,1.20
2023-01-15T17:15:16.636Z,1.30
2023-01-15T17:18:26.057Z,1.00
2023-01-15T17:21:29.190Z,0.83
2023-01-15T17:24:30.573Z,0.90
2023-01-15T17:27:32.187Z,0.90
2023-01-15T17:30:34.606Z,0.90
2023-01-15T17:33:36.048Z,1.50
2023-01-15T17:36:37.444Z,1.50
2023-01-15T17:39:38.887Z,1.20
2023-01-15T17:42:40.258Z,1.33
2023-01-15T17:45:42.895Z,1.13
2023-01-15T17:48:44.307Z,1.20
2023-01-15T17:51:45.756Z,1.40
2023-01-15T17:55:05.767Z,1.30
2023-01-15T17:58:29.529Z,1.20
2023-01-15T18:02:06.217Z,1.00
2023-01-15T18:05:30.674Z,1.20
2023-01-15T18:08:33.745Z,1.17
2023-01-15T18:11:35.455Z,1.37
2023-01-15T18:14:37.045Z,1.07
2023-01-15T18:17:38.566Z,1.00
2023-01-15T18:20:40.063Z,1.50
2023-01-15T18:23:41.593Z,1.50
2023-01-15T18:26:43.587Z,1.20
2023-01-15T18:29:44.983Z,1.00
2023-01-15T18:32:46.463Z,1.50
2023-01-15T18:35:47.843Z,1.30
2023-01-15T18:38:49.303Z,2.20
2023-01-15T18:41:50.681Z,1.80
2023-01-15T18:45:10.891Z,1.10
2023-01-15T18:48:12.429Z,2.03
2023-01-15T18:51:13.900Z,1.20
2023-01-15T18:54:15.338Z,1.40
2023-01-15T18:57:16.861Z,1.40
2023-01-15T19:00:20.122Z,1.47
2023-01-15T19:03:21.546Z,1.63
2023-01-15T19:06:22.949Z,1.20
2023-01-15T19:09:24.534Z,0.90
2023-01-15T19:12:26.051Z,1.43
2023-01-15T19:15:46.065Z,1.20
2023-01-15T19:18:53.331Z,1.40
2023-01-15T19:22:13.745Z,1.30
2023-01-15T19:25:15.553Z,1.80
2023-01-15T19:28:19.942Z,1.50
2023-01-15T19:31:37.025Z,0.90
2023-01-15T19:34:38.994Z,1.20
2023-01-15T19:37:40.519Z,1.40
2023-01-15T19:40:42.020Z,1.10
2023-01-15T19:44:02.209Z,1.30
2023-01-15T19:47:22.085Z,1.00
2023-01-15T19:50:32.146Z,0.93
2023-01-15T19:53:35.474Z,1.03
2023-01-15T19:56:37.113Z,1.03
2023-01-15T19:59:38.526Z,1.17
2023-01-15T20:02:40.173Z,1.07
2023-01-15T20:05:42.882Z,1.87
2023-01-15T20:08:44.320Z,1.70
2023-01-15T20:12:04.345Z,1.00
2023-01-15T20:15:06.331Z,1.00
2023-01-15T20:18:08.187Z,1.00
2023-01-15T20:21:14.400Z,1.20
2023-01-15T20:24:15.819Z,1.13
2023-01-15T20:27:17.631Z,1.30
2023-01-15T20:30:25.804Z,1.00
2023-01-15T20:33:27.282Z,1.10
2023-01-15T20:36:33.489Z,1.33
2023-01-15T20:39:34.932Z,1.13
2023-01-15T20:42:55.009Z,1.20
2023-01-15T20:46:07.627Z,1.80
2023-01-15T20:49:28.897Z,1.80
2023-01-15T20:52:30.450Z,1.90
2023-01-15T20:55:49.584Z,1.80
2023-01-15T20:58:56.810Z,1.53
2023-01-15T21:01:58.294Z,1.30
2023-01-15T21:04:59.715Z,1.13
2023-01-15T21:08:01.201Z,1.20
2023-01-15T21:11:03.091Z,1.10
2023-01-15T21:14:04.473Z,1.10
2023-01-15T21:17:05.889Z,1.13
2023-01-15T21:20:09.531Z,1.00
2023-01-15T21:23:10.904Z,0.90
2023-01-15T21:26:16.219Z,1.00
2023-01-15T21:29:17.962Z,0.90
2023-01-15T21:32:19.382Z,1.10
2023-01-15T21:35:20.888Z,1.27
2023-01-15T21:38:22.346Z,0.80
2023-01-15T21:41:43.447Z,1.47
2023-01-15T21:44:45.631Z,1.13
2023-01-15T21:47:47.063Z,1.10
2023-01-15T21:50:48.508Z,1.27
2023-01-15T21:53:49.926Z,1.10
2023-01-15T21:56:51.454Z,1.37
2023-01-15T21:59:52.880Z,0.83
2023-01-15T22:02:55.747Z,1.17
2023-01-15T22:06:02.713Z,0.93
2023-01-15T22:09:04.647Z,1.67
2023-01-15T22:12:06.261Z,1.10
2023-01-15T22:15:08.170Z,0.87
2023-01-15T22:18:09.565Z,0.90
2023-01-15T22:21:15.481Z,1.00
2023-01-15T22:24:19.198Z,1.03
2023-01-15T22:27:20.695Z,1.20
2023-01-15T22:30:22.119Z,1.10
2023-01-15T22:33:23.519Z,0.90
2023-01-15T22:36:26.970Z,0.93
2023-01-15T22:39:29.015Z,1.30
2023-01-15T22:42:32.757Z,1.07
2023-01-15T22:45:34.190Z,0.90
2023-01-15T22:48:35.616Z,1.00
2023-01-15T22:51:37.146Z,1.23
2023-01-15T22:54:38.599Z,1.07
2023-01-15T22:57:39.989Z,1.00
2023-01-15T23:00:41.382Z,0.97
2023-01-15T23:03:42.796Z,1.00
2023-01-15T23:06:44.493Z,1.10
2023-01-15T23:09:46.711Z,0.97
2023-01-15T23:12:48.137Z,0.87
2023-01-15T23:16:00.544Z,0.80
2023-01-15T23:19:02.151Z,1.20
2023-01-15T23:22:03.561Z,1.00
2023-01-15T23:25:05.615Z,1.10
2023-01-15T23:28:07.012Z,1.23
2023-01-15T23:31:09.002Z,0.90
2023-01-15T23:34:11.252Z,0.90
2023-01-15T23:37:12.695Z,1.10
2023-01-15T23:40:14.178Z,0.90
2023-01-15T23:43:34.986Z,1.10
2023-01-15T23:46:36.485Z,1.00
2023-01-15T23:49:38.010Z,1.00
2023-01-15T23:52:40.527Z,0.97
2023-01-15T23:55:41.904Z,1.00
2023-01-15T23:58:45.023Z,1.00
